• Join FlightAware (Why Join?)
  • Login
  • US Flag 
07:39PM EDT


 

Airport Tracker/Info


-or-


 

Live Flight TrackerFlight Track Log ✈ AWE3374 ✈ 23-Apr-2013 ✈ KDCA - KMHT

Flight Track Log - Related Links

Times and Time Zones

All times are in EDT time to prevent confusion due to time zone crossing. See the AWE3374 flight status page for this flight to view local times or setup timezone preferences in your user account.

Time Position Orientation Groundspeed Altitude Reporting Facility
EDT Latitude Longitude Course Direction KTS MPH feet Rate Location/Type
03:00PM 38.8833 -77.0667 83° East 163 188 1,700  Level Potomac TRACON
03:02PM 38.9710 -76.6747 57° Northeast  Level FlightAware Approximate
03:02PM 38.9697 -77.1642 319° Northwest 240 276 6,700  Level Washington Center
03:03PM 39.0200 -76.5566 67° East  Level FlightAware Approximate
03:03PM 39.0328 -77.1361 19° North 199 229 9,700  Level Washington Center
03:04PM 39.0657 -76.4359 63° Northeast  Level FlightAware Approximate
03:04PM 39.0467 -77.0242 81° East 201 231 11,500  Level Washington Center
03:05PM 39.1161 -76.3181 61° Northeast  Level FlightAware Approximate
03:05PM 39.0625 -76.8989 81° East 287 330 14,100  Level Washington Center
03:06PM 39.1516 -76.2007 83° East  Level FlightAware Approximate
03:06PM 39.0806 -76.7656 80° East 336 387 16,600  Level Washington Center
03:07PM 39.0964 -76.6347 81° East 357 411 18,600 1,980 Climbing Washington Center
03:08PM 39.1164 -76.4931 80° East 375 432 20,600 1,920 Climbing Washington Center
03:09PM 39.1339 -76.3489 81° East 393 452 22,500 1,200 Climbing Washington Center
03:10PM 39.1494 -76.2044 82° East 404 465 23,000 300 Climbing Washington Center
03:11PM 39.1708 -76.0736 78° East 411 473 23,200 900 Climbing Washington Center
03:12PM 39.1881 -75.9208 82° East 417 480 24,800 1,500 Climbing Washington Center
03:13PM 39.2550 -75.7981 55° Northeast 409 471 26,300 1,200 Climbing Washington Center
03:14PM 39.3406 -75.6908 44° Northeast 414 476 27,200 720 Climbing Washington Center
03:15PM 39.4303 -75.5756 45° Northeast 425 489 27,800 720 Climbing Washington Center
03:16PM 39.5217 -75.4544 46° Northeast 448 516 28,700 900 Climbing Washington Center
03:17PM 39.6153 -75.3331 45° Northeast 461 531 29,600 1,020 Climbing Washington Center
03:19PM 39.7975 -75.0750 47° Northeast 480 552 31,800 1,080 Climbing New York Center
03:20PM 39.8875 -74.9453 48° Northeast 480 552 32,900 600 Climbing New York Center
03:21PM 39.9686 -74.8308 47° Northeast 480 552 33,000  Climbing New York Center
03:22PM 40.0958 -74.7108 36° Northeast 491 565 33,000  Level New York Center
03:23PM 40.2222 -74.6636 16° North 512 589 33,000  Level New York Center
03:24PM 40.3678 -74.6119 15° North 523 602 33,000  Level New York Center
03:26PM 40.7144 -74.4964 14° North 533 613 33,000  Level Boston Center
03:27PM 40.8611 -74.4489 14° North 533 613 33,000  Level Boston Center
03:28PM 41.0100 -74.3986 14° North 533 613 33,000  Level Boston Center
03:29PM 41.1586 -74.3561 12° North 538 619 33,000  Level Boston Center
03:30PM 41.3033 -74.3025 16° North 538 619 33,000  Level Boston Center
03:31PM 41.4522 -74.2486 15° North 538 619 33,000  Level Boston Center
03:32PM 41.6072 -74.2003 13° North 550 633 33,000  Level Boston Center
03:33PM 41.7558 -74.1517 14° North 550 633 33,000 -60 Level Boston Center
03:35PM 41.9194 -74.0975 14° North 540 621 32,900 -960 Descending Boston Center
03:36PM 42.1247 -74.0272 14° North 540 621 30,800 -1,680 Descending Boston Center
03:37PM 42.2608 -73.9775 15° North 527 606 29,300 -1,500 Descending Boston Center
03:38PM 42.3767 -73.8847 31° Northeast 490 564 27,800 -1,500 Descending Boston Center
03:39PM 42.4369 -73.7286 62° Northeast 445 512 26,300 -1,080 Descending Boston Center
03:40PM 42.4781 -73.5661 71° East 432 497 25,700 -1,140 Descending Boston Center
03:41PM 42.5172 -73.4119 71° East 432 497 24,100 -1,500 Descending Boston Center
03:42PM 42.5536 -73.2658 71° East 439 505 22,800 -1,800 Descending Boston Center
03:43PM 42.5900 -73.1225 71° East 423 487 20,600 -1,920 Descending Boston Center
03:44PM 42.6200 -72.9903 73° East 387 445 19,000 -840 Descending Boston Center
03:45PM 42.6581 -72.8578 69° East 374 430 19,000  Level Boston Center
03:46PM 42.6897 -72.7253 72° East 369 425 19,000 -240 Level Boston Center
03:47PM 42.7211 -72.5928 72° East 369 425 18,600 -1,080 Descending Boston Center
03:48PM 42.7547 -72.4628 71° East 369 425 16,900 -1,920 Descending Boston Center
03:49PM 42.7839 -72.3383 72° East 359 413 14,800 -1,860 Descending Boston Center
03:50PM 42.7983 -72.2250 80° East 321 369 13,200 -1,740 Descending Boston Center
03:51PM 42.8083 -72.1006 84° East 306 352 11,400 -1,560 Descending Boston Center
03:52PM 42.8144 -72.0042 85° East 286 329 10,100 -1,800 Descending Boston Center
03:53PM 42.8056 -71.8883 96° East 273 314 7,800 -1,800 Descending Boston Center
03:54PM 42.7967 -71.8006 98° East 273 314 6,500 -1,860 Descending Boston Center
03:55PM 42.7753 -71.7019 106° East 254 292 4,100 -1,680 Descending Boston Center
03:56PM 42.7811 -71.6311 84° East 223 257 2,900 -960 Descending Boston Center
03:57PM 42.8286 -71.5739 41° Northeast 177 204 2,100 -840 Descending Boston Center